sensor_id;sensor_type;location;lat;lon;timestamp;P1;durP1;ratioP1;P2;durP2;ratioP2
19343;SDS011;9808;52.402;16.678;2023-08-07T00:00:00;2.13;;;1.20;;
19343;SDS011;9808;52.402;16.678;2023-08-07T00:02:28;3.45;;;1.10;;
19343;SDS011;9808;52.402;16.678;2023-08-07T00:04:56;3.92;;;1.00;;
19343;SDS011;9808;52.402;16.678;2023-08-07T00:07:24;3.22;;;1.27;;
19343;SDS011;9808;52.402;16.678;2023-08-07T00:09:52;2.42;;;1.25;;
19343;SDS011;9808;52.402;16.678;2023-08-07T00:12:19;6.07;;;1.10;;
19343;SDS011;9808;52.402;16.678;2023-08-07T00:14:50;2.67;;;1.20;;
19343;SDS011;9808;52.402;16.678;2023-08-07T00:17:17;3.47;;;1.25;;
19343;SDS011;9808;52.402;16.678;2023-08-07T00:19:44;4.47;;;1.30;;
19343;SDS011;9808;52.402;16.678;2023-08-07T00:22:11;2.75;;;1.30;;
19343;SDS011;9808;52.402;16.678;2023-08-07T00:24:39;2.40;;;1.13;;
19343;SDS011;9808;52.402;16.678;2023-08-07T00:27:06;2.78;;;1.15;;
19343;SDS011;9808;52.402;16.678;2023-08-07T00:29:36;3.58;;;1.15;;
19343;SDS011;9808;52.402;16.678;2023-08-07T00:32:03;5.32;;;1.23;;
19343;SDS011;9808;52.402;16.678;2023-08-07T00:34:30;2.78;;;1.48;;
19343;SDS011;9808;52.402;16.678;2023-08-07T00:36:58;3.45;;;1.40;;
19343;SDS011;9808;52.402;16.678;2023-08-07T00:39:25;3.53;;;1.23;;
19343;SDS011;9808;52.402;16.678;2023-08-07T00:41:52;2.00;;;1.00;;
19343;SDS011;9808;52.402;16.678;2023-08-07T00:44:19;3.45;;;1.40;;
19343;SDS011;9808;52.402;16.678;2023-08-07T00:46:47;3.90;;;1.45;;
19343;SDS011;9808;52.402;16.678;2023-08-07T00:49:14;2.13;;;1.20;;
19343;SDS011;9808;52.402;16.678;2023-08-07T00:51:41;2.38;;;1.17;;
19343;SDS011;9808;52.402;16.678;2023-08-07T00:54:09;3.05;;;1.50;;
19343;SDS011;9808;52.402;16.678;2023-08-07T00:56:37;2.35;;;1.30;;
19343;SDS011;9808;52.402;16.678;2023-08-07T00:59:04;3.97;;;1.60;;
19343;SDS011;9808;52.402;16.678;2023-08-07T01:01:32;3.80;;;1.40;;
19343;SDS011;9808;52.402;16.678;2023-08-07T01:03:59;3.25;;;1.60;;
19343;SDS011;9808;52.402;16.678;2023-08-07T01:06:26;2.15;;;1.40;;
19343;SDS011;9808;52.402;16.678;2023-08-07T01:08:54;4.53;;;1.60;;
19343;SDS011;9808;52.402;16.678;2023-08-07T01:11:34;3.00;;;1.40;;
19343;SDS011;9808;52.402;16.678;2023-08-07T01:16:35;2.75;;;1.25;;
19343;SDS011;9808;52.402;16.678;2023-08-07T01:19:03;2.38;;;1.17;;
19343;SDS011;9808;52.402;16.678;2023-08-07T01:21:31;5.57;;;1.58;;
19343;SDS011;9808;52.402;16.678;2023-08-07T01:23:59;2.00;;;1.23;;
19343;SDS011;9808;52.402;16.678;2023-08-07T01:26:26;2.75;;;1.25;;
19343;SDS011;9808;52.402;16.678;2023-08-07T01:28:58;3.22;;;1.20;;
19343;SDS011;9808;52.402;16.678;2023-08-07T01:31:28;5.03;;;1.58;;
19343;SDS011;9808;52.402;16.678;2023-08-07T01:33:59;5.20;;;1.83;;
19343;SDS011;9808;52.402;16.678;2023-08-07T01:36:29;7.07;;;1.40;;
19343;SDS011;9808;52.402;16.678;2023-08-07T01:38:57;3.28;;;1.45;;
19343;SDS011;9808;52.402;16.678;2023-08-07T01:41:25;4.65;;;1.85;;
19343;SDS011;9808;52.402;16.678;2023-08-07T01:43:52;7.75;;;1.30;;
19343;SDS011;9808;52.402;16.678;2023-08-07T01:46:20;2.25;;;1.15;;
19343;SDS011;9808;52.402;16.678;2023-08-07T01:48:47;3.08;;;1.30;;
19343;SDS011;9808;52.402;16.678;2023-08-07T01:51:15;5.20;;;1.48;;
19343;SDS011;9808;52.402;16.678;2023-08-07T01:53:42;3.45;;;1.70;;
19343;SDS011;9808;52.402;16.678;2023-08-07T01:56:09;4.15;;;1.52;;
19343;SDS011;9808;52.402;16.678;2023-08-07T01:58:36;4.38;;;1.23;;
19343;SDS011;9808;52.402;16.678;2023-08-07T02:01:03;5.20;;;1.88;;
19343;SDS011;9808;52.402;16.678;2023-08-07T02:03:31;2.78;;;1.40;;
19343;SDS011;9808;52.402;16.678;2023-08-07T02:05:58;2.67;;;1.50;;
19343;SDS011;9808;52.402;16.678;2023-08-07T02:08:27;2.17;;;1.25;;
19343;SDS011;9808;52.402;16.678;2023-08-07T02:10:54;5.55;;;1.45;;
19343;SDS011;9808;52.402;16.678;2023-08-07T02:13:22;2.10;;;1.30;;
19343;SDS011;9808;52.402;16.678;2023-08-07T02:15:49;2.92;;;1.33;;
19343;SDS011;9808;52.402;16.678;2023-08-07T02:18:16;4.00;;;1.67;;
19343;SDS011;9808;52.402;16.678;2023-08-07T02:20:43;5.88;;;1.67;;
19343;SDS011;9808;52.402;16.678;2023-08-07T02:23:12;3.38;;;1.80;;
19343;SDS011;9808;52.402;16.678;2023-08-07T02:25:39;3.67;;;1.40;;
19343;SDS011;9808;52.402;16.678;2023-08-07T02:28:06;2.40;;;1.27;;
19343;SDS011;9808;52.402;16.678;2023-08-07T02:30:33;2.83;;;1.42;;
19343;SDS011;9808;52.402;16.678;2023-08-07T02:33:01;4.80;;;1.30;;
19343;SDS011;9808;52.402;16.678;2023-08-07T02:35:28;4.05;;;1.60;;
19343;SDS011;9808;52.402;16.678;2023-08-07T02:37:55;2.92;;;1.50;;
19343;SDS011;9808;52.402;16.678;2023-08-07T02:40:22;5.88;;;1.95;;
19343;SDS011;9808;52.402;16.678;2023-08-07T02:42:50;2.78;;;1.33;;
19343;SDS011;9808;52.402;16.678;2023-08-07T02:45:18;4.72;;;1.65;;
19343;SDS011;9808;52.402;16.678;2023-08-07T02:47:45;3.30;;;1.40;;
19343;SDS011;9808;52.402;16.678;2023-08-07T02:50:12;2.85;;;1.60;;
19343;SDS011;9808;52.402;16.678;2023-08-07T02:52:39;3.53;;;1.50;;
19343;SDS011;9808;52.402;16.678;2023-08-07T02:55:09;4.18;;;1.55;;
19343;SDS011;9808;52.402;16.678;2023-08-07T02:57:36;3.80;;;1.63;;
19343;SDS011;9808;52.402;16.678;2023-08-07T03:00:04;2.92;;;1.30;;
19343;SDS011;9808;52.402;16.678;2023-08-07T03:02:32;3.28;;;1.60;;
19343;SDS011;9808;52.402;16.678;2023-08-07T03:04:59;3.97;;;1.50;;
19343;SDS011;9808;52.402;16.678;2023-08-07T03:07:26;3.30;;;1.42;;
19343;SDS011;9808;52.402;16.678;2023-08-07T03:09:54;3.65;;;1.50;;
19343;SDS011;9808;52.402;16.678;2023-08-07T03:12:21;3.10;;;1.48;;
19343;SDS011;9808;52.402;16.678;2023-08-07T03:14:48;3.60;;;1.45;;
19343;SDS011;9808;52.402;16.678;2023-08-07T03:17:15;7.40;;;1.40;;
19343;SDS011;9808;52.402;16.678;2023-08-07T03:19:43;3.40;;;1.55;;
19343;SDS011;9808;52.402;16.678;2023-08-07T03:22:10;7.07;;;1.67;;
19343;SDS011;9808;52.402;16.678;2023-08-07T03:24:37;5.65;;;1.85;;
19343;SDS011;9808;52.402;16.678;2023-08-07T03:27:04;4.85;;;1.50;;
19343;SDS011;9808;52.402;16.678;2023-08-07T03:29:32;2.40;;;1.40;;
19343;SDS011;9808;52.402;16.678;2023-08-07T03:31:59;5.10;;;1.70;;
19343;SDS011;9808;52.402;16.678;2023-08-07T03:34:26;3.05;;;1.60;;
19343;SDS011;9808;52.402;16.678;2023-08-07T03:36:53;3.90;;;1.40;;
19343;SDS011;9808;52.402;16.678;2023-08-07T03:39:22;3.77;;;1.57;;
19343;SDS011;9808;52.402;16.678;2023-08-07T03:41:49;2.92;;;1.50;;
19343;SDS011;9808;52.402;16.678;2023-08-07T03:44:16;4.47;;;1.63;;
19343;SDS011;9808;52.402;16.678;2023-08-07T03:46:43;3.85;;;1.80;;
19343;SDS011;9808;52.402;16.678;2023-08-07T03:49:11;8.13;;;1.93;;
19343;SDS011;9808;52.402;16.678;2023-08-07T03:51:38;6.33;;;1.77;;
19343;SDS011;9808;52.402;16.678;2023-08-07T03:54:05;6.13;;;1.90;;
19343;SDS011;9808;52.402;16.678;2023-08-07T03:56:32;3.93;;;1.63;;
19343;SDS011;9808;52.402;16.678;2023-08-07T03:59:02;4.07;;;1.97;;
19343;SDS011;9808;52.402;16.678;2023-08-07T04:01:30;5.47;;;2.08;;
19343;SDS011;9808;52.402;16.678;2023-08-07T04:03:57;3.28;;;1.40;;
19343;SDS011;9808;52.402;16.678;2023-08-07T04:06:24;3.10;;;1.48;;
19343;SDS011;9808;52.402;16.678;2023-08-07T04:08:53;2.93;;;1.50;;
19343;SDS011;9808;52.402;16.678;2023-08-07T04:11:20;3.17;;;1.67;;
19343;SDS011;9808;52.402;16.678;2023-08-07T04:13:47;4.05;;;1.63;;
19343;SDS011;9808;52.402;16.678;2023-08-07T04:16:14;3.83;;;1.80;;
19343;SDS011;9808;52.402;16.678;2023-08-07T04:18:43;3.13;;;1.70;;
19343;SDS011;9808;52.402;16.678;2023-08-07T04:21:10;4.60;;;1.63;;
19343;SDS011;9808;52.402;16.678;2023-08-07T04:23:38;6.78;;;1.70;;
19343;SDS011;9808;52.402;16.678;2023-08-07T04:26:08;3.53;;;1.77;;
19343;SDS011;9808;52.402;16.678;2023-08-07T04:28:35;4.77;;;1.43;;
19343;SDS011;9808;52.402;16.678;2023-08-07T04:31:03;6.32;;;1.85;;
19343;SDS011;9808;52.402;16.678;2023-08-07T04:33:30;3.53;;;1.65;;
19343;SDS011;9808;52.402;16.678;2023-08-07T04:35:57;5.20;;;1.50;;
19343;SDS011;9808;52.402;16.678;2023-08-07T04:38:24;2.40;;;1.40;;
19343;SDS011;9808;52.402;16.678;2023-08-07T04:40:52;3.35;;;1.48;;
19343;SDS011;9808;52.402;16.678;2023-08-07T04:43:20;5.22;;;2.10;;
19343;SDS011;9808;52.402;16.678;2023-08-07T04:45:47;5.53;;;1.80;;
19343;SDS011;9808;52.402;16.678;2023-08-07T04:48:14;3.20;;;1.45;;
19343;SDS011;9808;52.402;16.678;2023-08-07T04:50:43;3.35;;;1.70;;
19343;SDS011;9808;52.402;16.678;2023-08-07T04:53:10;3.65;;;1.60;;
19343;SDS011;9808;52.402;16.678;2023-08-07T04:55:38;3.50;;;1.75;;
19343;SDS011;9808;52.402;16.678;2023-08-07T04:58:06;2.90;;;1.67;;
19343;SDS011;9808;52.402;16.678;2023-08-07T05:00:34;3.35;;;1.75;;
19343;SDS011;9808;52.402;16.678;2023-08-07T05:03:01;8.88;;;1.70;;
19343;SDS011;9808;52.402;16.678;2023-08-07T05:05:28;5.57;;;2.08;;
19343;SDS011;9808;52.402;16.678;2023-08-07T05:07:57;6.03;;;2.13;;
19343;SDS011;9808;52.402;16.678;2023-08-07T05:10:25;5.32;;;1.95;;
19343;SDS011;9808;52.402;16.678;2023-08-07T05:12:53;4.90;;;2.00;;
19343;SDS011;9808;52.402;16.678;2023-08-07T05:15:24;6.95;;;2.08;;
19343;SDS011;9808;52.402;16.678;2023-08-07T05:17:51;4.97;;;2.22;;
19343;SDS011;9808;52.402;16.678;2023-08-07T05:20:19;5.07;;;2.15;;
19343;SDS011;9808;52.402;16.678;2023-08-07T05:22:47;4.95;;;2.33;;
19343;SDS011;9808;52.402;16.678;2023-08-07T05:25:14;3.47;;;1.85;;
19343;SDS011;9808;52.402;16.678;2023-08-07T05:27:42;7.45;;;1.95;;
19343;SDS011;9808;52.402;16.678;2023-08-07T05:30:10;3.72;;;1.80;;
19343;SDS011;9808;52.402;16.678;2023-08-07T05:32:37;4.78;;;2.05;;
19343;SDS011;9808;52.402;16.678;2023-08-07T05:35:05;4.28;;;1.98;;
19343;SDS011;9808;52.402;16.678;2023-08-07T05:37:33;7.18;;;2.58;;
19343;SDS011;9808;52.402;16.678;2023-08-07T05:40:01;4.88;;;2.60;;
19343;SDS011;9808;52.402;16.678;2023-08-07T05:42:28;3.97;;;1.73;;
19343;SDS011;9808;52.402;16.678;2023-08-07T05:44:55;6.55;;;2.10;;
19343;SDS011;9808;52.402;16.678;2023-08-07T05:47:23;3.50;;;1.70;;
19343;SDS011;9808;52.402;16.678;2023-08-07T05:49:50;8.15;;;2.33;;
19343;SDS011;9808;52.402;16.678;2023-08-07T05:52:18;3.38;;;1.63;;
19343;SDS011;9808;52.402;16.678;2023-08-07T05:54:45;3.72;;;1.77;;
19343;SDS011;9808;52.402;16.678;2023-08-07T05:57:13;5.28;;;1.90;;
19343;SDS011;9808;52.402;16.678;2023-08-07T05:59:40;5.85;;;1.80;;
19343;SDS011;9808;52.402;16.678;2023-08-07T06:02:07;4.63;;;2.05;;
19343;SDS011;9808;52.402;16.678;2023-08-07T06:04:37;4.30;;;1.60;;
19343;SDS011;9808;52.402;16.678;2023-08-07T06:07:05;2.75;;;1.55;;
19343;SDS011;9808;52.402;16.678;2023-08-07T06:09:33;4.03;;;1.70;;
19343;SDS011;9808;52.402;16.678;2023-08-07T06:12:00;5.78;;;1.58;;
19343;SDS011;9808;52.402;16.678;2023-08-07T06:14:27;4.88;;;1.98;;
19343;SDS011;9808;52.402;16.678;2023-08-07T06:16:54;3.33;;;1.77;;
19343;SDS011;9808;52.402;16.678;2023-08-07T06:19:24;4.68;;;2.10;;
19343;SDS011;9808;52.402;16.678;2023-08-07T06:21:57;4.97;;;1.98;;
19343;SDS011;9808;52.402;16.678;2023-08-07T06:24:25;6.90;;;2.00;;
19343;SDS011;9808;52.402;16.678;2023-08-07T06:26:53;5.97;;;2.05;;
19343;SDS011;9808;52.402;16.678;2023-08-07T06:29:20;3.15;;;1.73;;
19343;SDS011;9808;52.402;16.678;2023-08-07T06:31:47;3.83;;;1.90;;
19343;SDS011;9808;52.402;16.678;2023-08-07T06:34:14;3.90;;;1.85;;
19343;SDS011;9808;52.402;16.678;2023-08-07T06:36:42;3.47;;;1.90;;
19343;SDS011;9808;52.402;16.678;2023-08-07T06:39:09;5.47;;;2.38;;
19343;SDS011;9808;52.402;16.678;2023-08-07T06:41:37;4.72;;;2.03;;
19343;SDS011;9808;52.402;16.678;2023-08-07T06:44:05;6.05;;;2.25;;
19343;SDS011;9808;52.402;16.678;2023-08-07T06:46:32;6.22;;;2.28;;
19343;SDS011;9808;52.402;16.678;2023-08-07T06:48:59;6.63;;;1.98;;
19343;SDS011;9808;52.402;16.678;2023-08-07T06:51:26;7.22;;;1.92;;
19343;SDS011;9808;52.402;16.678;2023-08-07T06:53:54;4.28;;;2.08;;
19343;SDS011;9808;52.402;16.678;2023-08-07T06:56:21;3.45;;;1.63;;
19343;SDS011;9808;52.402;16.678;2023-08-07T06:58:48;5.03;;;1.92;;
19343;SDS011;9808;52.402;16.678;2023-08-07T07:01:16;6.20;;;1.90;;
19343;SDS011;9808;52.402;16.678;2023-08-07T07:03:43;6.20;;;1.92;;
19343;SDS011;9808;52.402;16.678;2023-08-07T07:06:13;4.00;;;1.60;;
19343;SDS011;9808;52.402;16.678;2023-08-07T07:08:40;3.60;;;1.90;;
19343;SDS011;9808;52.402;16.678;2023-08-07T07:11:08;4.63;;;1.83;;
19343;SDS011;9808;52.402;16.678;2023-08-07T07:13:36;3.80;;;1.90;;
19343;SDS011;9808;52.402;16.678;2023-08-07T07:16:03;5.18;;;1.85;;
19343;SDS011;9808;52.402;16.678;2023-08-07T07:18:30;6.72;;;2.20;;
19343;SDS011;9808;52.402;16.678;2023-08-07T07:20:58;6.80;;;1.90;;
19343;SDS011;9808;52.402;16.678;2023-08-07T07:23:26;4.03;;;2.15;;
19343;SDS011;9808;52.402;16.678;2023-08-07T07:25:54;6.53;;;2.20;;
19343;SDS011;9808;52.402;16.678;2023-08-07T07:28:21;4.50;;;2.15;;
19343;SDS011;9808;52.402;16.678;2023-08-07T07:30:49;5.90;;;2.30;;
19343;SDS011;9808;52.402;16.678;2023-08-07T07:33:16;5.45;;;2.03;;
19343;SDS011;9808;52.402;16.678;2023-08-07T07:35:43;7.30;;;2.40;;
19343;SDS011;9808;52.402;16.678;2023-08-07T07:38:11;4.18;;;2.30;;
19343;SDS011;9808;52.402;16.678;2023-08-07T07:40:38;5.60;;;2.00;;
19343;SDS011;9808;52.402;16.678;2023-08-07T07:43:05;3.35;;;1.85;;
19343;SDS011;9808;52.402;16.678;2023-08-07T07:45:32;6.65;;;2.20;;
19343;SDS011;9808;52.402;16.678;2023-08-07T07:48:04;9.93;;;2.50;;
19343;SDS011;9808;52.402;16.678;2023-08-07T07:50:34;5.43;;;2.33;;
19343;SDS011;9808;52.402;16.678;2023-08-07T07:53:01;5.85;;;2.20;;
19343;SDS011;9808;52.402;16.678;2023-08-07T07:55:29;6.63;;;2.72;;
19343;SDS011;9808;52.402;16.678;2023-08-07T07:57:56;6.30;;;2.15;;
19343;SDS011;9808;52.402;16.678;2023-08-07T08:00:23;5.13;;;2.15;;
19343;SDS011;9808;52.402;16.678;2023-08-07T08:02:53;6.47;;;2.05;;
19343;SDS011;9808;52.402;16.678;2023-08-07T08:05:21;5.40;;;2.28;;
19343;SDS011;9808;52.402;16.678;2023-08-07T08:07:48;4.95;;;2.10;;
19343;SDS011;9808;52.402;16.678;2023-08-07T08:10:15;4.55;;;2.10;;
19343;SDS011;9808;52.402;16.678;2023-08-07T08:12:42;8.48;;;2.70;;
19343;SDS011;9808;52.402;16.678;2023-08-07T08:15:10;7.22;;;2.58;;
19343;SDS011;9808;52.402;16.678;2023-08-07T08:17:37;5.15;;;2.58;;
19343;SDS011;9808;52.402;16.678;2023-08-07T08:20:06;6.38;;;2.30;;
19343;SDS011;9808;52.402;16.678;2023-08-07T08:22:34;5.43;;;2.38;;
19343;SDS011;9808;52.402;16.678;2023-08-07T08:25:01;6.13;;;2.40;;
19343;SDS011;9808;52.402;16.678;2023-08-07T08:27:30;6.20;;;2.80;;
19343;SDS011;9808;52.402;16.678;2023-08-07T08:29:58;3.47;;;2.05;;
19343;SDS011;9808;52.402;16.678;2023-08-07T08:32:25;4.10;;;2.17;;
19343;SDS011;9808;52.402;16.678;2023-08-07T08:34:52;5.55;;;2.22;;
19343;SDS011;9808;52.402;16.678;2023-08-07T08:37:20;4.90;;;2.40;;
19343;SDS011;9808;52.402;16.678;2023-08-07T08:39:47;4.13;;;2.05;;
19343;SDS011;9808;52.402;16.678;2023-08-07T08:42:14;6.40;;;2.60;;
19343;SDS011;9808;52.402;16.678;2023-08-07T08:44:48;6.97;;;2.30;;
19343;SDS011;9808;52.402;16.678;2023-08-07T08:47:18;4.82;;;2.10;;
19343;SDS011;9808;52.402;16.678;2023-08-07T08:49:46;4.80;;;2.53;;
19343;SDS011;9808;52.402;16.678;2023-08-07T08:52:13;8.63;;;2.80;;
19343;SDS011;9808;52.402;16.678;2023-08-07T08:54:42;5.05;;;2.33;;
19343;SDS011;9808;52.402;16.678;2023-08-07T08:57:10;5.05;;;2.20;;
19343;SDS011;9808;52.402;16.678;2023-08-07T08:59:38;4.07;;;2.08;;
19343;SDS011;9808;52.402;16.678;2023-08-07T09:02:06;5.53;;;2.05;;
19343;SDS011;9808;52.402;16.678;2023-08-07T09:04:34;5.22;;;2.25;;
19343;SDS011;9808;52.402;16.678;2023-08-07T09:07:01;4.95;;;2.40;;
19343;SDS011;9808;52.402;16.678;2023-08-07T09:09:29;6.15;;;2.03;;
19343;SDS011;9808;52.402;16.678;2023-08-07T09:11:57;4.80;;;2.17;;
19343;SDS011;9808;52.402;16.678;2023-08-07T09:14:26;4.68;;;1.88;;
19343;SDS011;9808;52.402;16.678;2023-08-07T09:16:57;6.47;;;2.00;;
19343;SDS011;9808;52.402;16.678;2023-08-07T09:19:26;4.82;;;1.92;;
19343;SDS011;9808;52.402;16.678;2023-08-07T09:21:53;5.72;;;1.77;;
19343;SDS011;9808;52.402;16.678;2023-08-07T09:24:20;4.63;;;1.85;;
19343;SDS011;9808;52.402;16.678;2023-08-07T09:26:50;7.28;;;2.03;;
19343;SDS011;9808;52.402;16.678;2023-08-07T09:29:20;3.80;;;1.70;;
19343;SDS011;9808;52.402;16.678;2023-08-07T09:31:49;5.07;;;1.63;;
19343;SDS011;9808;52.402;16.678;2023-08-07T09:34:19;2.47;;;1.60;;
19343;SDS011;9808;52.402;16.678;2023-08-07T09:36:46;6.78;;;1.70;;
19343;SDS011;9808;52.402;16.678;2023-08-07T09:39:14;3.15;;;1.67;;
19343;SDS011;9808;52.402;16.678;2023-08-07T09:41:41;4.10;;;1.60;;
19343;SDS011;9808;52.402;16.678;2023-08-07T09:44:09;4.22;;;1.50;;
19343;SDS011;9808;52.402;16.678;2023-08-07T09:46:44;5.35;;;1.70;;
19343;SDS011;9808;52.402;16.678;2023-08-07T09:49:12;5.13;;;2.15;;
19343;SDS011;9808;52.402;16.678;2023-08-07T09:51:41;3.72;;;1.70;;
19343;SDS011;9808;52.402;16.678;2023-08-07T09:54:09;4.43;;;1.95;;
19343;SDS011;9808;52.402;16.678;2023-08-07T09:56:38;5.05;;;1.48;;
19343;SDS011;9808;52.402;16.678;2023-08-07T09:59:06;2.95;;;1.65;;
19343;SDS011;9808;52.402;16.678;2023-08-07T10:01:36;5.95;;;2.33;;
19343;SDS011;9808;52.402;16.678;2023-08-07T10:04:05;4.13;;;1.80;;
19343;SDS011;9808;52.402;16.678;2023-08-07T10:06:34;4.70;;;1.90;;
19343;SDS011;9808;52.402;16.678;2023-08-07T10:09:01;3.95;;;1.50;;
19343;SDS011;9808;52.402;16.678;2023-08-07T10:11:30;2.53;;;1.45;;
19343;SDS011;9808;52.402;16.678;2023-08-07T10:13:58;4.45;;;1.65;;
19343;SDS011;9808;52.402;16.678;2023-08-07T10:16:26;3.40;;;1.83;;
19343;SDS011;9808;52.402;16.678;2023-08-07T10:18:54;4.45;;;1.80;;
19343;SDS011;9808;52.402;16.678;2023-08-07T10:21:22;5.05;;;1.98;;
19343;SDS011;9808;52.402;16.678;2023-08-07T10:23:51;2.65;;;1.30;;
19343;SDS011;9808;52.402;16.678;2023-08-07T10:26:19;4.38;;;2.00;;
19343;SDS011;9808;52.402;16.678;2023-08-07T10:28:47;4.80;;;1.70;;
19343;SDS011;9808;52.402;16.678;2023-08-07T10:31:15;4.30;;;1.90;;
19343;SDS011;9808;52.402;16.678;2023-08-07T10:33:43;4.22;;;1.73;;
19343;SDS011;9808;52.402;16.678;2023-08-07T10:36:10;2.50;;;1.55;;
19343;SDS011;9808;52.402;16.678;2023-08-07T10:38:38;4.13;;;1.80;;
19343;SDS011;9808;52.402;16.678;2023-08-07T10:41:07;2.78;;;1.60;;
19343;SDS011;9808;52.402;16.678;2023-08-07T10:43:40;3.15;;;1.60;;
19343;SDS011;9808;52.402;16.678;2023-08-07T10:46:11;4.07;;;1.77;;
19343;SDS011;9808;52.402;16.678;2023-08-07T10:48:40;5.13;;;1.60;;
19343;SDS011;9808;52.402;16.678;2023-08-07T10:51:07;3.65;;;1.80;;
19343;SDS011;9808;52.402;16.678;2023-08-07T10:53:42;3.97;;;1.83;;
19343;SDS011;9808;52.402;16.678;2023-08-07T10:56:11;10.90;;;2.28;;
19343;SDS011;9808;52.402;16.678;2023-08-07T10:58:42;9.73;;;1.80;;
19343;SDS011;9808;52.402;16.678;2023-08-07T11:01:27;3.42;;;1.70;;
19343;SDS011;9808;52.402;16.678;2023-08-07T11:04:00;4.72;;;1.52;;
19343;SDS011;9808;52.402;16.678;2023-08-07T11:06:28;9.27;;;1.60;;
19343;SDS011;9808;52.402;16.678;2023-08-07T11:09:00;3.40;;;1.58;;
19343;SDS011;9808;52.402;16.678;2023-08-07T11:11:30;4.10;;;1.50;;
19343;SDS011;9808;52.402;16.678;2023-08-07T11:14:09;2.33;;;1.33;;
19343;SDS011;9808;52.402;16.678;2023-08-07T11:16:37;4.88;;;1.67;;
19343;SDS011;9808;52.402;16.678;2023-08-07T11:19:05;7.72;;;1.40;;
19343;SDS011;9808;52.402;16.678;2023-08-07T11:21:32;3.13;;;1.70;;
19343;SDS011;9808;52.402;16.678;2023-08-07T11:24:00;2.00;;;1.30;;
19343;SDS011;9808;52.402;16.678;2023-08-07T11:26:27;4.05;;;1.85;;
19343;SDS011;9808;52.402;16.678;2023-08-07T11:28:55;3.67;;;1.40;;
19343;SDS011;9808;52.402;16.678;2023-08-07T11:31:22;2.63;;;1.30;;
19343;SDS011;9808;52.402;16.678;2023-08-07T11:33:54;4.22;;;1.67;;
19343;SDS011;9808;52.402;16.678;2023-08-07T11:36:22;4.22;;;1.50;;
19343;SDS011;9808;52.402;16.678;2023-08-07T11:38:49;3.25;;;1.60;;
19343;SDS011;9808;52.402;16.678;2023-08-07T11:41:17;4.22;;;1.70;;
19343;SDS011;9808;52.402;16.678;2023-08-07T11:43:45;3.13;;;1.30;;
19343;SDS011;9808;52.402;16.678;2023-08-07T11:46:13;2.78;;;1.35;;
19343;SDS011;9808;52.402;16.678;2023-08-07T11:48:41;3.97;;;1.20;;
19343;SDS011;9808;52.402;16.678;2023-08-07T11:51:08;8.85;;;1.85;;
19343;SDS011;9808;52.402;16.678;2023-08-07T11:53:36;2.95;;;1.20;;
19343;SDS011;9808;52.402;16.678;2023-08-07T11:56:05;5.38;;;1.40;;
19343;SDS011;9808;52.402;16.678;2023-08-07T11:58:36;3.97;;;1.30;;
19343;SDS011;9808;52.402;16.678;2023-08-07T12:01:14;4.13;;;1.17;;
19343;SDS011;9808;52.402;16.678;2023-08-07T12:03:50;2.63;;;1.20;;
19343;SDS011;9808;52.402;16.678;2023-08-07T12:06:18;2.63;;;1.30;;
19343;SDS011;9808;52.402;16.678;2023-08-07T12:08:47;2.03;;;1.13;;
19343;SDS011;9808;52.402;16.678;2023-08-07T12:11:15;3.95;;;1.40;;
19343;SDS011;9808;52.402;16.678;2023-08-07T12:13:43;3.17;;;1.35;;
19343;SDS011;9808;52.402;16.678;2023-08-07T12:16:11;3.45;;;1.25;;
19343;SDS011;9808;52.402;16.678;2023-08-07T12:18:45;3.60;;;1.30;;
19343;SDS011;9808;52.402;16.678;2023-08-07T12:21:13;4.20;;;1.42;;
19343;SDS011;9808;52.402;16.678;2023-08-07T12:23:41;7.45;;;2.92;;
19343;SDS011;9808;52.402;16.678;2023-08-07T12:26:10;3.70;;;1.42;;
19343;SDS011;9808;52.402;16.678;2023-08-07T12:28:37;3.97;;;1.48;;
19343;SDS011;9808;52.402;16.678;2023-08-07T12:31:04;4.05;;;1.25;;
19343;SDS011;9808;52.402;16.678;2023-08-07T12:33:33;4.45;;;1.33;;
19343;SDS011;9808;52.402;16.678;2023-08-07T12:36:00;2.90;;;1.50;;
19343;SDS011;9808;52.402;16.678;2023-08-07T12:38:28;4.60;;;1.70;;
19343;SDS011;9808;52.402;16.678;2023-08-07T12:40:56;4.30;;;1.58;;
19343;SDS011;9808;52.402;16.678;2023-08-07T12:43:23;3.78;;;1.67;;
19343;SDS011;9808;52.402;16.678;2023-08-07T12:45:51;4.82;;;1.80;;
19343;SDS011;9808;52.402;16.678;2023-08-07T12:48:39;6.28;;;1.58;;
19343;SDS011;9808;52.402;16.678;2023-08-07T12:51:06;5.97;;;1.60;;
19343;SDS011;9808;52.402;16.678;2023-08-07T12:53:34;6.88;;;1.90;;
19343;SDS011;9808;52.402;16.678;2023-08-07T12:56:01;5.20;;;1.92;;
19343;SDS011;9808;52.402;16.678;2023-08-07T12:58:29;4.72;;;2.03;;
19343;SDS011;9808;52.402;16.678;2023-08-07T13:00:57;9.20;;;2.72;;
19343;SDS011;9808;52.402;16.678;2023-08-07T13:03:24;6.47;;;2.70;;
19343;SDS011;9808;52.402;16.678;2023-08-07T13:05:51;6.57;;;2.72;;
19343;SDS011;9808;52.402;16.678;2023-08-07T13:08:19;4.80;;;2.13;;
19343;SDS011;9808;52.402;16.678;2023-08-07T13:10:46;5.32;;;2.30;;
19343;SDS011;9808;52.402;16.678;2023-08-07T13:13:15;6.18;;;2.45;;
19343;SDS011;9808;52.402;16.678;2023-08-07T13:15:43;4.38;;;1.80;;
19343;SDS011;9808;52.402;16.678;2023-08-07T13:18:10;3.50;;;1.90;;
19343;SDS011;9808;52.402;16.678;2023-08-07T13:20:37;6.88;;;2.22;;
19343;SDS011;9808;52.402;16.678;2023-08-07T13:23:04;5.32;;;2.22;;
19343;SDS011;9808;52.402;16.678;2023-08-07T13:25:33;3.83;;;2.08;;
19343;SDS011;9808;52.402;16.678;2023-08-07T13:28:00;5.93;;;2.25;;
19343;SDS011;9808;52.402;16.678;2023-08-07T13:30:33;4.68;;;1.75;;
19343;SDS011;9808;52.402;16.678;2023-08-07T13:33:03;4.13;;;2.05;;
19343;SDS011;9808;52.402;16.678;2023-08-07T13:35:30;4.75;;;2.20;;
19343;SDS011;9808;52.402;16.678;2023-08-07T13:37:59;6.03;;;1.88;;
19343;SDS011;9808;52.402;16.678;2023-08-07T13:40:31;4.03;;;2.13;;
19343;SDS011;9808;52.402;16.678;2023-08-07T13:42:58;4.78;;;2.20;;
19343;SDS011;9808;52.402;16.678;2023-08-07T13:45:29;5.28;;;2.30;;
19343;SDS011;9808;52.402;16.678;2023-08-07T13:47:56;3.88;;;1.98;;
19343;SDS011;9808;52.402;16.678;2023-08-07T13:50:23;2.70;;;1.52;;
19343;SDS011;9808;52.402;16.678;2023-08-07T13:52:51;5.88;;;1.90;;
19343;SDS011;9808;52.402;16.678;2023-08-07T13:55:38;7.78;;;1.98;;
19343;SDS011;9808;52.402;16.678;2023-08-07T13:58:05;4.35;;;1.80;;
19343;SDS011;9808;52.402;16.678;2023-08-07T14:00:32;5.72;;;1.98;;
19343;SDS011;9808;52.402;16.678;2023-08-07T14:03:01;7.18;;;2.85;;
19343;SDS011;9808;52.402;16.678;2023-08-07T14:05:28;6.18;;;2.30;;
19343;SDS011;9808;52.402;16.678;2023-08-07T14:07:55;4.78;;;2.30;;
19343;SDS011;9808;52.402;16.678;2023-08-07T14:10:23;5.05;;;2.10;;
19343;SDS011;9808;52.402;16.678;2023-08-07T14:12:51;11.70;;;3.08;;
19343;SDS011;9808;52.402;16.678;2023-08-07T14:15:18;4.00;;;2.17;;
19343;SDS011;9808;52.402;16.678;2023-08-07T14:17:45;4.35;;;2.40;;
19343;SDS011;9808;52.402;16.678;2023-08-07T14:20:13;5.10;;;2.20;;
19343;SDS011;9808;52.402;16.678;2023-08-07T14:22:40;6.00;;;2.50;;
19343;SDS011;9808;52.402;16.678;2023-08-07T14:25:08;7.18;;;2.60;;
19343;SDS011;9808;52.402;16.678;2023-08-07T14:27:35;4.57;;;2.13;;
19343;SDS011;9808;52.402;16.678;2023-08-07T14:30:02;6.95;;;2.50;;
19343;SDS011;9808;52.402;16.678;2023-08-07T14:32:30;4.85;;;2.38;;
19343;SDS011;9808;52.402;16.678;2023-08-07T14:34:57;6.47;;;2.72;;
19343;SDS011;9808;52.402;16.678;2023-08-07T14:37:24;6.60;;;2.47;;
19343;SDS011;9808;52.402;16.678;2023-08-07T14:39:51;4.38;;;2.20;;
19343;SDS011;9808;52.402;16.678;2023-08-07T14:42:19;5.50;;;2.40;;
19343;SDS011;9808;52.402;16.678;2023-08-07T14:44:46;5.68;;;2.47;;
19343;SDS011;9808;52.402;16.678;2023-08-07T14:47:13;5.65;;;2.45;;
19343;SDS011;9808;52.402;16.678;2023-08-07T14:49:40;4.57;;;2.20;;
19343;SDS011;9808;52.402;16.678;2023-08-07T14:52:08;6.85;;;2.35;;
19343;SDS011;9808;52.402;16.678;2023-08-07T14:54:35;4.75;;;2.33;;